sensor_id;sensor_type;location;lat;lon;timestamp;temperature;humidity
1680;DHT22;838;51.794;12.258;2023-02-08T00:01:51;-1.30;25.50
1680;DHT22;838;51.794;12.258;2023-02-08T00:04:17;-0.90;24.30
1680;DHT22;838;51.794;12.258;2023-02-08T00:06:43;-0.80;22.90
1680;DHT22;838;51.794;12.258;2023-02-08T00:09:09;-1.00;20.40
1680;DHT22;838;51.794;12.258;2023-02-08T00:11:35;-1.10;21.70
1680;DHT22;838;51.794;12.258;2023-02-08T00:14:00;-0.80;20.50
1680;DHT22;838;51.794;12.258;2023-02-08T00:16:26;-0.80;19.80
1680;DHT22;838;51.794;12.258;2023-02-08T00:18:52;-0.70;19.80
1680;DHT22;838;51.794;12.258;2023-02-08T00:21:18;-0.30;18.90
1680;DHT22;838;51.794;12.258;2023-02-08T00:23:44;-0.80;17.80
1680;DHT22;838;51.794;12.258;2023-02-08T00:26:11;-0.90;17.60
1680;DHT22;838;51.794;12.258;2023-02-08T00:28:36;-1.30;18.70
1680;DHT22;838;51.794;12.258;2023-02-08T00:31:03;-2.10;19.50
1680;DHT22;838;51.794;12.258;2023-02-08T00:33:29;-2.70;23.00
1680;DHT22;838;51.794;12.258;2023-02-08T00:36:02;-2.30;24.70
1680;DHT22;838;51.794;12.258;2023-02-08T00:38:28;-2.40;25.30
1680;DHT22;838;51.794;12.258;2023-02-08T00:40:54;-2.40;24.70
1680;DHT22;838;51.794;12.258;2023-02-08T00:43:20;-2.40;24.10
1680;DHT22;838;51.794;12.258;2023-02-08T00:45:45;-2.40;23.40
1680;DHT22;838;51.794;12.258;2023-02-08T00:48:11;-2.10;24.60
1680;DHT22;838;51.794;12.258;2023-02-08T00:50:37;-2.00;23.30
1680;DHT22;838;51.794;12.258;2023-02-08T00:53:02;-2.10;23.30
1680;DHT22;838;51.794;12.258;2023-02-08T00:55:28;-2.00;22.40
1680;DHT22;838;51.794;12.258;2023-02-08T00:57:54;-1.70;22.20
1680;DHT22;838;51.794;12.258;2023-02-08T01:00:20;-2.00;21.90
1680;DHT22;838;51.794;12.258;2023-02-08T01:02:46;-2.00;20.90
1680;DHT22;838;51.794;12.258;2023-02-08T01:05:12;-2.20;21.60
1680;DHT22;838;51.794;12.258;2023-02-08T01:07:38;-2.10;21.70
1680;DHT22;838;51.794;12.258;2023-02-08T01:10:06;-1.90;21.20
1680;DHT22;838;51.794;12.258;2023-02-08T01:12:32;-1.80;20.60
1680;DHT22;838;51.794;12.258;2023-02-08T01:14:58;-1.70;20.20
1680;DHT22;838;51.794;12.258;2023-02-08T01:17:24;-1.70;18.60
1680;DHT22;838;51.794;12.258;2023-02-08T01:19:49;-2.30;19.60
1680;DHT22;838;51.794;12.258;2023-02-08T01:22:15;-2.40;21.70
1680;DHT22;838;51.794;12.258;2023-02-08T01:24:40;-2.30;21.00
1680;DHT22;838;51.794;12.258;2023-02-08T01:27:06;-2.40;20.80
1680;DHT22;838;51.794;12.258;2023-02-08T01:29:32;-2.50;20.90
1680;DHT22;838;51.794;12.258;2023-02-08T01:31:57;-2.90;21.40
1680;DHT22;838;51.794;12.258;2023-02-08T01:34:23;-3.40;24.10
1680;DHT22;838;51.794;12.258;2023-02-08T01:36:49;-3.90;27.70
1680;DHT22;838;51.794;12.258;2023-02-08T01:39:15;-4.10;31.10
1680;DHT22;838;51.794;12.258;2023-02-08T01:41:42;-4.20;34.50
1680;DHT22;838;51.794;12.258;2023-02-08T01:46:43;-4.50;38.80
1680;DHT22;838;51.794;12.258;2023-02-08T01:49:32;-4.50;39.10
1680;DHT22;838;51.794;12.258;2023-02-08T01:52:14;-4.60;39.90
1680;DHT22;838;51.794;12.258;2023-02-08T01:54:55;-4.50;41.20
1680;DHT22;838;51.794;12.258;2023-02-08T01:57:22;-4.60;40.70
1680;DHT22;838;51.794;12.258;2023-02-08T02:00:00;-4.50;41.40
1680;DHT22;838;51.794;12.258;2023-02-08T02:02:27;-4.70;42.00
1680;DHT22;838;51.794;12.258;2023-02-08T02:04:53;-4.60;43.50
1680;DHT22;838;51.794;12.258;2023-02-08T02:07:22;-4.30;42.80
1680;DHT22;838;51.794;12.258;2023-02-08T02:09:55;-4.10;41.30
1680;DHT22;838;51.794;12.258;2023-02-08T02:12:23;-4.60;40.60
1680;DHT22;838;51.794;12.258;2023-02-08T02:14:50;-4.70;41.30
1680;DHT22;838;51.794;12.258;2023-02-08T02:17:17;-4.50;42.30
1680;DHT22;838;51.794;12.258;2023-02-08T02:25:19;-4.40;43.90
1680;DHT22;838;51.794;12.258;2023-02-08T02:33:34;-4.10;37.80
1680;DHT22;838;51.794;12.258;2023-02-08T02:36:18;-4.20;37.80
1680;DHT22;838;51.794;12.258;2023-02-08T02:39:08;-4.20;37.30
1680;DHT22;838;51.794;12.258;2023-02-08T02:42:00;-4.30;37.10
1680;DHT22;838;51.794;12.258;2023-02-08T02:53:04;-4.30;39.40
1680;DHT22;838;51.794;12.258;2023-02-08T02:55:35;-4.20;38.80
1680;DHT22;838;51.794;12.258;2023-02-08T02:58:05;-4.20;36.70
1680;DHT22;838;51.794;12.258;2023-02-08T03:00:32;-4.40;36.40
1680;DHT22;838;51.794;12.258;2023-02-08T03:02:58;-4.40;38.00
1680;DHT22;838;51.794;12.258;2023-02-08T03:05:25;-4.10;39.60
1680;DHT22;838;51.794;12.258;2023-02-08T03:16:37;-4.00;33.10
1680;DHT22;838;51.794;12.258;2023-02-08T03:19:21;-3.60;33.40
1680;DHT22;838;51.794;12.258;2023-02-08T03:31:14;-3.30;29.20
1680;DHT22;838;51.794;12.258;2023-02-08T03:36:25;-2.70;26.40
1680;DHT22;838;51.794;12.258;2023-02-08T03:38:56;-2.40;24.50
1680;DHT22;838;51.794;12.258;2023-02-08T03:41:29;-2.40;23.10
1680;DHT22;838;51.794;12.258;2023-02-08T03:44:21;-2.30;21.50
1680;DHT22;838;51.794;12.258;2023-02-08T03:46:52;-2.20;19.90
1680;DHT22;838;51.794;12.258;2023-02-08T03:49:22;-1.90;18.90
1680;DHT22;838;51.794;12.258;2023-02-08T03:51:49;-2.40;16.90
1680;DHT22;838;51.794;12.258;2023-02-08T03:54:19;-3.10;18.50
1680;DHT22;838;51.794;12.258;2023-02-08T03:59:24;-3.20;21.20
1680;DHT22;838;51.794;12.258;2023-02-08T04:02:00;-2.80;19.90
1680;DHT22;838;51.794;12.258;2023-02-08T04:04:30;-2.60;18.80
1680;DHT22;838;51.794;12.258;2023-02-08T04:06:57;-2.70;17.80
1680;DHT22;838;51.794;12.258;2023-02-08T04:09:23;-2.80;17.90
1680;DHT22;838;51.794;12.258;2023-02-08T04:11:48;-2.70;17.20
1680;DHT22;838;51.794;12.258;2023-02-08T04:14:14;-2.80;16.70
1680;DHT22;838;51.794;12.258;2023-02-08T04:16:40;-2.70;16.80
1680;DHT22;838;51.794;12.258;2023-02-08T04:19:05;-2.70;16.40
1680;DHT22;838;51.794;12.258;2023-02-08T04:21:31;-2.90;14.90
1680;DHT22;838;51.794;12.258;2023-02-08T04:23:57;-3.20;16.20
1680;DHT22;838;51.794;12.258;2023-02-08T04:26:23;-3.60;15.50
1680;DHT22;838;51.794;12.258;2023-02-08T04:28:49;-4.00;17.70
1680;DHT22;838;51.794;12.258;2023-02-08T04:31:15;-4.00;18.70
1680;DHT22;838;51.794;12.258;2023-02-08T04:33:40;-4.00;18.70
1680;DHT22;838;51.794;12.258;2023-02-08T04:36:06;-3.70;18.20
1680;DHT22;838;51.794;12.258;2023-02-08T04:38:32;-3.60;17.10
1680;DHT22;838;51.794;12.258;2023-02-08T04:40:57;-3.80;17.00
1680;DHT22;838;51.794;12.258;2023-02-08T04:43:23;-4.00;17.70
1680;DHT22;838;51.794;12.258;2023-02-08T04:45:49;-4.30;17.40
1680;DHT22;838;51.794;12.258;2023-02-08T04:48:16;-4.80;18.40
1680;DHT22;838;51.794;12.258;2023-02-08T04:50:42;-5.00;20.40
1680;DHT22;838;51.794;12.258;2023-02-08T04:53:07;-5.10;20.70
1680;DHT22;838;51.794;12.258;2023-02-08T04:55:33;-5.00;21.40
1680;DHT22;838;51.794;12.258;2023-02-08T04:57:59;-5.00;21.40
1680;DHT22;838;51.794;12.258;2023-02-08T05:00:25;-4.80;21.60
1680;DHT22;838;51.794;12.258;2023-02-08T05:02:53;-5.00;21.90
1680;DHT22;838;51.794;12.258;2023-02-08T05:05:19;-4.80;21.80
1680;DHT22;838;51.794;12.258;2023-02-08T05:07:44;-4.50;20.90
1680;DHT22;838;51.794;12.258;2023-02-08T05:10:10;-4.50;19.70
1680;DHT22;838;51.794;12.258;2023-02-08T05:12:36;-4.30;19.40
1680;DHT22;838;51.794;12.258;2023-02-08T05:15:02;-3.80;18.60
1680;DHT22;838;51.794;12.258;2023-02-08T05:17:27;-3.90;17.20
1680;DHT22;838;51.794;12.258;2023-02-08T05:19:53;-3.90;16.30
1680;DHT22;838;51.794;12.258;2023-02-08T05:22:19;-4.00;15.50
1680;DHT22;838;51.794;12.258;2023-02-08T05:24:45;-4.20;16.00
1680;DHT22;838;51.794;12.258;2023-02-08T05:27:10;-4.20;15.70
1680;DHT22;838;51.794;12.258;2023-02-08T05:29:36;-4.40;16.40
1680;DHT22;838;51.794;12.258;2023-02-08T05:32:02;-4.40;16.30
1680;DHT22;838;51.794;12.258;2023-02-08T05:34:27;-4.20;15.80
1680;DHT22;838;51.794;12.258;2023-02-08T05:36:53;-4.30;14.70
1680;DHT22;838;51.794;12.258;2023-02-08T05:39:19;-4.60;14.50
1680;DHT22;838;51.794;12.258;2023-02-08T05:41:45;-4.90;15.20
1680;DHT22;838;51.794;12.258;2023-02-08T05:44:10;-4.90;16.40
1680;DHT22;838;51.794;12.258;2023-02-08T05:46:36;-4.70;16.10
1680;DHT22;838;51.794;12.258;2023-02-08T05:49:02;-4.70;16.20
1680;DHT22;838;51.794;12.258;2023-02-08T05:51:27;-4.10;15.70
1680;DHT22;838;51.794;12.258;2023-02-08T05:53:53;-4.20;14.80
1680;DHT22;838;51.794;12.258;2023-02-08T05:56:19;-4.10;13.30
1680;DHT22;838;51.794;12.258;2023-02-08T05:58:45;-4.20;13.50
1680;DHT22;838;51.794;12.258;2023-02-08T06:01:12;-4.40;12.60
1680;DHT22;838;51.794;12.258;2023-02-08T06:03:39;-4.60;13.50
1680;DHT22;838;51.794;12.258;2023-02-08T06:06:06;-4.50;13.40
1680;DHT22;838;51.794;12.258;2023-02-08T06:08:32;-4.50;12.90
1680;DHT22;838;51.794;12.258;2023-02-08T06:10:58;-4.40;13.80
1680;DHT22;838;51.794;12.258;2023-02-08T06:13:24;-4.10;13.10
1680;DHT22;838;51.794;12.258;2023-02-08T06:15:49;-4.10;12.40
1680;DHT22;838;51.794;12.258;2023-02-08T06:18:16;-3.90;11.70
1680;DHT22;838;51.794;12.258;2023-02-08T06:20:42;-3.80;11.20
1680;DHT22;838;51.794;12.258;2023-02-08T06:23:07;-3.60;10.70
1680;DHT22;838;51.794;12.258;2023-02-08T06:25:33;-3.70;10.20
1680;DHT22;838;51.794;12.258;2023-02-08T06:27:59;-3.70;9.70
1680;DHT22;838;51.794;12.258;2023-02-08T06:30:24;-3.50;9.80
1680;DHT22;838;51.794;12.258;2023-02-08T06:32:50;-3.70;9.20
1680;DHT22;838;51.794;12.258;2023-02-08T06:35:16;-3.70;9.10
1680;DHT22;838;51.794;12.258;2023-02-08T06:37:42;-3.80;8.80
1680;DHT22;838;51.794;12.258;2023-02-08T06:40:08;-3.60;8.80
1680;DHT22;838;51.794;12.258;2023-02-08T06:42:34;-3.70;8.50
1680;DHT22;838;51.794;12.258;2023-02-08T06:45:00;-3.70;8.30
1680;DHT22;838;51.794;12.258;2023-02-08T06:47:26;-3.70;8.00
1680;DHT22;838;51.794;12.258;2023-02-08T06:49:52;-3.70;7.70
1680;DHT22;838;51.794;12.258;2023-02-08T06:52:19;-3.90;7.60
1680;DHT22;838;51.794;12.258;2023-02-08T06:54:46;-4.00;7.50
1680;DHT22;838;51.794;12.258;2023-02-08T06:57:11;-4.10;7.50
1680;DHT22;838;51.794;12.258;2023-02-08T06:59:38;-4.80;8.20
1680;DHT22;838;51.794;12.258;2023-02-08T07:02:04;-5.10;9.90
1680;DHT22;838;51.794;12.258;2023-02-08T07:04:30;-5.30;10.40
1680;DHT22;838;51.794;12.258;2023-02-08T07:06:56;-5.60;12.50
1680;DHT22;838;51.794;12.258;2023-02-08T07:09:21;-5.70;13.90
1680;DHT22;838;51.794;12.258;2023-02-08T07:11:47;-5.70;14.40
1680;DHT22;838;51.794;12.258;2023-02-08T07:14:14;-5.80;15.60
1680;DHT22;838;51.794;12.258;2023-02-08T07:16:40;-5.60;16.70
1680;DHT22;838;51.794;12.258;2023-02-08T07:19:06;-5.60;17.50
1680;DHT22;838;51.794;12.258;2023-02-08T07:21:32;-5.30;18.10
1680;DHT22;838;51.794;12.258;2023-02-08T07:23:57;-5.40;18.70
1680;DHT22;838;51.794;12.258;2023-02-08T07:26:23;-5.20;18.80
1680;DHT22;838;51.794;12.258;2023-02-08T07:28:49;-4.90;18.80
1680;DHT22;838;51.794;12.258;2023-02-08T07:31:16;-4.50;17.40
1680;DHT22;838;51.794;12.258;2023-02-08T07:33:42;-4.20;15.20
1680;DHT22;838;51.794;12.258;2023-02-08T07:36:08;-4.00;14.90
1680;DHT22;838;51.794;12.258;2023-02-08T07:38:36;-3.80;13.60
1680;DHT22;838;51.794;12.258;2023-02-08T07:41:06;-3.80;12.10
1680;DHT22;838;51.794;12.258;2023-02-08T07:43:34;-3.90;12.20
1680;DHT22;838;51.794;12.258;2023-02-08T07:46:15;-4.20;11.70
1680;DHT22;838;51.794;12.258;2023-02-08T07:48:41;-4.40;13.10
1680;DHT22;838;51.794;12.258;2023-02-08T07:51:08;-4.60;13.90
1680;DHT22;838;51.794;12.258;2023-02-08T07:53:35;-5.00;15.10
1680;DHT22;838;51.794;12.258;2023-02-08T07:56:01;-4.80;16.60
1680;DHT22;838;51.794;12.258;2023-02-08T07:58:26;-4.80;16.90
1680;DHT22;838;51.794;12.258;2023-02-08T08:00:52;-4.80;17.80
1680;DHT22;838;51.794;12.258;2023-02-08T08:03:18;-4.70;18.60
1680;DHT22;838;51.794;12.258;2023-02-08T08:05:44;-4.40;18.40
1680;DHT22;838;51.794;12.258;2023-02-08T08:08:10;-4.20;17.90
1680;DHT22;838;51.794;12.258;2023-02-08T08:10:37;-3.90;16.30
1680;DHT22;838;51.794;12.258;2023-02-08T08:13:02;-4.00;15.60
1680;DHT22;838;51.794;12.258;2023-02-08T08:15:29;-4.10;16.70
1680;DHT22;838;51.794;12.258;2023-02-08T08:17:54;-4.40;17.10
1680;DHT22;838;51.794;12.258;2023-02-08T08:20:20;-4.50;17.80
1680;DHT22;838;51.794;12.258;2023-02-08T08:22:46;-4.50;19.10
1680;DHT22;838;51.794;12.258;2023-02-08T08:25:12;-4.50;19.70
1680;DHT22;838;51.794;12.258;2023-02-08T08:27:38;-4.30;20.70
1680;DHT22;838;51.794;12.258;2023-02-08T08:30:10;-4.40;20.50
1680;DHT22;838;51.794;12.258;2023-02-08T08:32:37;-4.40;20.90
1680;DHT22;838;51.794;12.258;2023-02-08T08:35:04;-4.60;22.30
1680;DHT22;838;51.794;12.258;2023-02-08T08:37:30;-4.60;23.90
1680;DHT22;838;51.794;12.258;2023-02-08T08:39:56;-4.60;25.30
1680;DHT22;838;51.794;12.258;2023-02-08T08:42:21;-4.60;25.20
1680;DHT22;838;51.794;12.258;2023-02-08T08:44:47;-4.30;27.00
1680;DHT22;838;51.794;12.258;2023-02-08T08:47:13;-4.00;27.10
1680;DHT22;838;51.794;12.258;2023-02-08T08:49:39;-3.50;27.60
1680;DHT22;838;51.794;12.258;2023-02-08T08:52:05;-2.90;26.30
1680;DHT22;838;51.794;12.258;2023-02-08T08:54:33;-2.70;23.70
1680;DHT22;838;51.794;12.258;2023-02-08T08:56:59;-2.30;22.30
1680;DHT22;838;51.794;12.258;2023-02-08T08:59:24;-2.30;19.90
1680;DHT22;838;51.794;12.258;2023-02-08T09:01:50;-2.10;19.80
1680;DHT22;838;51.794;12.258;2023-02-08T09:04:16;-1.80;19.80
1680;DHT22;838;51.794;12.258;2023-02-08T09:06:42;-1.20;16.70
1680;DHT22;838;51.794;12.258;2023-02-08T09:09:08;-1.00;15.90
1680;DHT22;838;51.794;12.258;2023-02-08T09:11:34;-0.50;14.90
1680;DHT22;838;51.794;12.258;2023-02-08T09:14:04;0.00;13.80
1680;DHT22;838;51.794;12.258;2023-02-08T09:16:30;0.10;11.50
1680;DHT22;838;51.794;12.258;2023-02-08T09:18:58;0.20;12.10
1680;DHT22;838;51.794;12.258;2023-02-08T09:21:24;0.50;10.40
1680;DHT22;838;51.794;12.258;2023-02-08T09:23:50;0.20;9.70
1680;DHT22;838;51.794;12.258;2023-02-08T09:26:18;-0.20;10.90
1680;DHT22;838;51.794;12.258;2023-02-08T09:28:44;-0.40;12.50
1680;DHT22;838;51.794;12.258;2023-02-08T09:33:37;-0.10;11.90
1680;DHT22;838;51.794;12.258;2023-02-08T09:36:03;-0.40;11.80
1680;DHT22;838;51.794;12.258;2023-02-08T09:38:29;-0.80;14.90
1680;DHT22;838;51.794;12.258;2023-02-08T09:41:23;-1.00;16.00
1680;DHT22;838;51.794;12.258;2023-02-08T09:46:42;-1.70;19.40
1680;DHT22;838;51.794;12.258;2023-02-08T09:49:15;-1.70;21.50
1680;DHT22;838;51.794;12.258;2023-02-08T09:51:53;-1.90;23.40
1680;DHT22;838;51.794;12.258;2023-02-08T09:54:34;-2.00;24.70
1680;DHT22;838;51.794;12.258;2023-02-08T09:57:04;-2.00;26.10
1680;DHT22;838;51.794;12.258;2023-02-08T09:59:32;-1.80;26.90
1680;DHT22;838;51.794;12.258;2023-02-08T10:05:11;-1.60;26.90
1680;DHT22;838;51.794;12.258;2023-02-08T10:07:40;-1.50;27.60
1680;DHT22;838;51.794;12.258;2023-02-08T10:13:17;-1.60;26.50
1680;DHT22;838;51.794;12.258;2023-02-08T10:16:01;-1.50;26.30
1680;DHT22;838;51.794;12.258;2023-02-08T10:24:15;-1.10;28.00
1680;DHT22;838;51.794;12.258;2023-02-08T10:29:41;-0.90;25.30
1680;DHT22;838;51.794;12.258;2023-02-08T10:35:10;-0.60;25.90
1680;DHT22;838;51.794;12.258;2023-02-08T10:37:39;-0.60;23.80
1680;DHT22;838;51.794;12.258;2023-02-08T10:40:34;-0.70;24.00
1680;DHT22;838;51.794;12.258;2023-02-08T10:45:55;-0.60;23.70
1680;DHT22;838;51.794;12.258;2023-02-08T10:48:41;-0.50;24.80
1680;DHT22;838;51.794;12.258;2023-02-08T10:51:13;-0.60;23.60
1680;DHT22;838;51.794;12.258;2023-02-08T10:53:40;-0.50;24.80
1680;DHT22;838;51.794;12.258;2023-02-08T10:56:05;-0.60;24.10
1680;DHT22;838;51.794;12.258;2023-02-08T10:58:35;-0.60;23.80
1680;DHT22;838;51.794;12.258;2023-02-08T11:01:01;-0.50;24.80
1680;DHT22;838;51.794;12.258;2023-02-08T11:03:28;-0.50;24.30
1680;DHT22;838;51.794;12.258;2023-02-08T11:05:55;-0.40;25.50
1680;DHT22;838;51.794;12.258;2023-02-08T11:08:23;-0.10;25.40
1680;DHT22;838;51.794;12.258;2023-02-08T11:13:37;-0.30;25.20
1680;DHT22;838;51.794;12.258;2023-02-08T11:16:10;-0.20;25.60
1680;DHT22;838;51.794;12.258;2023-02-08T11:18:39;-0.10;26.20
1680;DHT22;838;51.794;12.258;2023-02-08T11:23:55;0.10;23.90
1680;DHT22;838;51.794;12.258;2023-02-08T11:26:36;0.40;24.60
1680;DHT22;838;51.794;12.258;2023-02-08T11:31:33;0.30;20.00
1680;DHT22;838;51.794;12.258;2023-02-08T11:34:04;0.40;19.70
1680;DHT22;838;51.794;12.258;2023-02-08T11:36:32;0.40;18.20
1680;DHT22;838;51.794;12.258;2023-02-08T11:39:02;0.30;17.60
1680;DHT22;838;51.794;12.258;2023-02-08T11:41:28;0.20;18.40
1680;DHT22;838;51.794;12.258;2023-02-08T11:44:01;0.30;19.10
1680;DHT22;838;51.794;12.258;2023-02-08T11:46:31;0.30;17.90
1680;DHT22;838;51.794;12.258;2023-02-08T11:48:58;0.40;17.60
1680;DHT22;838;51.794;12.258;2023-02-08T11:51:34;0.50;17.70
1680;DHT22;838;51.794;12.258;2023-02-08T11:54:01;0.60;18.50
1680;DHT22;838;51.794;12.258;2023-02-08T11:56:29;0.60;17.20
1680;DHT22;838;51.794;12.258;2023-02-08T12:01:36;0.90;18.00
1680;DHT22;838;51.794;12.258;2023-02-08T12:04:08;1.10;16.60
1680;DHT22;838;51.794;12.258;2023-02-08T12:15:17;1.00;12.20
1680;DHT22;838;51.794;12.258;2023-02-08T12:20:38;0.80;12.50
1680;DHT22;838;51.794;12.258;2023-02-08T12:26:11;0.80;15.00
1680;DHT22;838;51.794;12.258;2023-02-08T12:29:02;0.80;12.10
1680;DHT22;838;51.794;12.258;2023-02-08T12:37:09;1.20;10.80
1680;DHT22;838;51.794;12.258;2023-02-08T12:40:24;1.10;11.20
1680;DHT22;838;51.794;12.258;2023-02-08T12:54:02;1.40;11.00
1680;DHT22;838;51.794;12.258;2023-02-08T12:56:34;1.40;10.00
1680;DHT22;838;51.794;12.258;2023-02-08T12:59:01;1.30;9.80
1680;DHT22;838;51.794;12.258;2023-02-08T13:01:39;1.20;10.50
1680;DHT22;838;51.794;12.258;2023-02-08T13:04:18;1.30;11.50
1680;DHT22;838;51.794;12.258;2023-02-08T13:07:00;1.50;11.50
1680;DHT22;838;51.794;12.258;2023-02-08T13:14:34;1.60;10.30
1680;DHT22;838;51.794;12.258;2023-02-08T13:17:26;1.70;9.90
1680;DHT22;838;51.794;12.258;2023-02-08T13:22:34;2.20;8.90
1680;DHT22;838;51.794;12.258;2023-02-08T13:25:06;1.90;7.80
1680;DHT22;838;51.794;12.258;2023-02-08T13:27:37;1.80;8.70
1680;DHT22;838;51.794;12.258;2023-02-08T13:30:04;1.80;8.20
1680;DHT22;838;51.794;12.258;2023-02-08T13:32:37;1.70;8.70
1680;DHT22;838;51.794;12.258;2023-02-08T13:35:28;1.70;9.70
1680;DHT22;838;51.794;12.258;2023-02-08T13:38:06;1.90;8.80
1680;DHT22;838;51.794;12.258;2023-02-08T13:40:41;1.90;7.70
1680;DHT22;838;51.794;12.258;2023-02-08T13:43:23;1.90;8.20
1680;DHT22;838;51.794;12.258;2023-02-08T13:45:51;2.00;8.40
1680;DHT22;838;51.794;12.258;2023-02-08T13:48:18;2.00;8.30
1680;DHT22;838;51.794;12.258;2023-02-08T13:56:03;2.10;7.60
1680;DHT22;838;51.794;12.258;2023-02-08T14:03:42;2.20;7.00
1680;DHT22;838;51.794;12.258;2023-02-08T14:06:24;2.40;6.70
1680;DHT22;838;51.794;12.258;2023-02-08T14:16:34;2.40;7.00
1680;DHT22;838;51.794;12.258;2023-02-08T14:21:48;2.20;5.40
1680;DHT22;838;51.794;12.258;2023-02-08T14:24:23;2.10;5.50
1680;DHT22;838;51.794;12.258;2023-02-08T14:32:51;1.90;4.80
1680;DHT22;838;51.794;12.258;2023-02-08T14:35:23;1.90;5.30
1680;DHT22;838;51.794;12.258;2023-02-08T14:40:55;2.00;5.10
1680;DHT22;838;51.794;12.258;2023-02-08T14:45:57;2.10;3.90
1680;DHT22;838;51.794;12.258;2023-02-08T14:56:13;2.20;5.60
1680;DHT22;838;51.794;12.258;2023-02-08T14:58:41;2.10;5.30
1680;DHT22;838;51.794;12.258;2023-02-08T15:01:20;2.10;6.00
1680;DHT22;838;51.794;12.258;2023-02-08T15:03:51;2.20;6.50
1680;DHT22;838;51.794;12.258;2023-02-08T15:09:22;2.10;6.90
1680;DHT22;838;51.794;12.258;2023-02-08T15:12:16;2.00;6.90
1680;DHT22;838;51.794;12.258;2023-02-08T15:14:44;2.00;7.20
1680;DHT22;838;51.794;12.258;2023-02-08T15:17:40;1.90;7.90
1680;DHT22;838;51.794;12.258;2023-02-08T15:20:20;1.90;7.20
1680;DHT22;838;51.794;12.258;2023-02-08T15:22:47;2.00;7.30
1680;DHT22;838;51.794;12.258;2023-02-08T15:25:20;1.90;7.10
1680;DHT22;838;51.794;12.258;2023-02-08T15:27:49;1.90;7.10
1680;DHT22;838;51.794;12.258;2023-02-08T15:30:35;1.80;7.50
1680;DHT22;838;51.794;12.258;2023-02-08T15:33:07;1.80;7.60
1680;DHT22;838;51.794;12.258;2023-02-08T15:35:34;1.70;7.80
1680;DHT22;838;51.794;12.258;2023-02-08T15:38:01;1.70;8.00
1680;DHT22;838;51.794;12.258;2023-02-08T15:40:33;1.60;8.10
1680;DHT22;838;51.794;12.258;2023-02-08T15:43:12;1.60;8.00
1680;DHT22;838;51.794;12.258;2023-02-08T15:45:38;1.60;8.20
1680;DHT22;838;51.794;12.258;2023-02-08T15:48:05;1.60;8.00
1680;DHT22;838;51.794;12.258;2023-02-08T15:50:32;1.60;7.90
1680;DHT22;838;51.794;12.258;2023-02-08T15:53:05;1.50;7.90
1680;DHT22;838;51.794;12.258;2023-02-08T15:55:45;1.50;8.10
1680;DHT22;838;51.794;12.258;2023-02-08T15:58:30;1.60;7.80
1680;DHT22;838;51.794;12.258;2023-02-08T16:00:59;1.60;7.90
1680;DHT22;838;51.794;12.258;2023-02-08T16:03:26;1.50;7.90
1680;DHT22;838;51.794;12.258;2023-02-08T16:06:01;1.40;8.00
1680;DHT22;838;51.794;12.258;2023-02-08T16:08:33;1.30;8.50
1680;DHT22;838;51.794;12.258;2023-02-08T16:11:04;1.50;8.40
1680;DHT22;838;51.794;12.258;2023-02-08T16:13:34;1.30;8.10
1680;DHT22;838;51.794;12.258;2023-02-08T16:16:19;1.20;8.50
1680;DHT22;838;51.794;12.258;2023-02-08T16:19:05;1.00;9.10
1680;DHT22;838;51.794;12.258;2023-02-08T16:21:41;1.10;8.90
1680;DHT22;838;51.794;12.258;2023-02-08T16:29:38;1.80;6.30
1680;DHT22;838;51.794;12.258;2023-02-08T16:32:25;2.10;5.80
1680;DHT22;838;51.794;12.258;2023-02-08T16:34:51;1.90;5.80
1680;DHT22;838;51.794;12.258;2023-02-08T16:37:37;1.90;5.50
1680;DHT22;838;51.794;12.258;2023-02-08T16:40:08;2.00;5.10
1680;DHT22;838;51.794;12.258;2023-02-08T16:42:51;2.00;5.20
1680;DHT22;838;51.794;12.258;2023-02-08T16:45:19;1.90;5.00
1680;DHT22;838;51.794;12.258;2023-02-08T16:47:49;1.80;5.30
1680;DHT22;838;51.794;12.258;2023-02-08T16:50:18;1.70;5.70
1680;DHT22;838;51.794;12.258;2023-02-08T16:52:48;1.80;5.30
1680;DHT22;838;51.794;12.258;2023-02-08T16:55:24;1.50;5.90
1680;DHT22;838;51.794;12.258;2023-02-08T16:57:53;1.30;6.50
1680;DHT22;838;51.794;12.258;2023-02-08T17:00:26;0.80;7.80
1680;DHT22;838;51.794;12.258;2023-02-08T17:02:52;0.70;9.30
1680;DHT22;838;51.794;12.258;2023-02-08T17:05:20;1.00;8.70
1680;DHT22;838;51.794;12.258;2023-02-08T17:07:46;0.90;8.50
1680;DHT22;838;51.794;12.258;2023-02-08T17:10:28;1.10;8.40
1680;DHT22;838;51.794;12.258;2023-02-08T17:12:54;1.20;7.80
1680;DHT22;838;51.794;12.258;2023-02-08T17:15:20;1.30;6.70
1680;DHT22;838;51.794;12.258;2023-02-08T17:17:48;1.00;7.20
1680;DHT22;838;51.794;12.258;2023-02-08T17:20:21;1.00;7.70
1680;DHT22;838;51.794;12.258;2023-02-08T17:22:48;1.20;7.30
1680;DHT22;838;51.794;12.258;2023-02-08T17:25:15;1.30;7.10
1680;DHT22;838;51.794;12.258;2023-02-08T17:27:53;1.50;5.90
1680;DHT22;838;51.794;12.258;2023-02-08T17:30:28;1.50;5.60
1680;DHT22;838;51.794;12.258;2023-02-08T17:32:54;1.50;5.60
1680;DHT22;838;51.794;12.258;2023-02-08T17:35:27;1.40;5.70
1680;DHT22;838;51.794;12.258;2023-02-08T17:37:53;1.20;6.20
1680;DHT22;838;51.794;12.258;2023-02-08T17:40:23;1.00;6.60
1680;DHT22;838;51.794;12.258;2023-02-08T17:42:52;0.90;6.80
1680;DHT22;838;51.794;12.258;2023-02-08T17:45:19;0.50;7.40
1680;DHT22;838;51.794;12.258;2023-02-08T17:47:44;0.10;8.70
1680;DHT22;838;51.794;12.258;2023-02-08T17:50:12;-0.20;9.90
1680;DHT22;838;51.794;12.258;2023-02-08T17:52:39;-0.20;10.70
1680;DHT22;838;51.794;12.258;2023-02-08T17:55:07;-0.30;10.80
1680;DHT22;838;51.794;12.258;2023-02-08T17:57:36;-0.60;11.80
1680;DHT22;838;51.794;12.258;2023-02-08T18:00:05;-0.40;12.70
1680;DHT22;838;51.794;12.258;2023-02-08T18:02:34;-0.40;13.00
1680;DHT22;838;51.794;12.258;2023-02-08T18:05:00;-0.30;12.50
1680;DHT22;838;51.794;12.258;2023-02-08T18:07:25;-0.40;14.10
1680;DHT22;838;51.794;12.258;2023-02-08T18:09:51;-0.20;12.00
1680;DHT22;838;51.794;12.258;2023-02-08T18:12:17;-0.30;11.90
1680;DHT22;838;51.794;12.258;2023-02-08T18:14:43;-0.20;12.80
1680;DHT22;838;51.794;12.258;2023-02-08T18:17:08;-0.20;12.50
1680;DHT22;838;51.794;12.258;2023-02-08T18:19:34;-0.10;12.20
1680;DHT22;838;51.794;12.258;2023-02-08T18:22:00;-0.10;11.80
1680;DHT22;838;51.794;12.258;2023-02-08T18:24:29;-0.10;11.70
1680;DHT22;838;51.794;12.258;2023-02-08T18:26:56;-0.20;11.40
1680;DHT22;838;51.794;12.258;2023-02-08T18:29:22;-0.50;11.70
1680;DHT22;838;51.794;12.258;2023-02-08T18:31:49;-0.80;13.20
1680;DHT22;838;51.794;12.258;2023-02-08T18:34:15;-0.90;14.20
1680;DHT22;838;51.794;12.258;2023-02-08T18:36:42;-0.70;13.60
1680;DHT22;838;51.794;12.258;2023-02-08T18:39:11;-0.70;12.80
1680;DHT22;838;51.794;12.258;2023-02-08T18:41:39;-0.90;12.90
1680;DHT22;838;51.794;12.258;2023-02-08T18:44:05;-1.20;14.10
1680;DHT22;838;51.794;12.258;2023-02-08T18:46:31;-1.50;15.50
1680;DHT22;838;51.794;12.258;2023-02-08T18:48:56;-1.70;16.40
1680;DHT22;838;51.794;12.258;2023-02-08T18:51:23;-1.70;17.30
1680;DHT22;838;51.794;12.258;2023-02-08T18:53:51;-1.80;17.50
1680;DHT22;838;51.794;12.258;2023-02-08T18:56:19;-1.70;17.30
1680;DHT22;838;51.794;12.258;2023-02-08T18:58:49;-1.60;17.00
1680;DHT22;838;51.794;12.258;2023-02-08T19:01:19;-1.60;16.60
1680;DHT22;838;51.794;12.258;2023-02-08T19:03:46;-1.40;16.10
1680;DHT22;838;51.794;12.258;2023-02-08T19:06:21;-1.20;15.80
1680;DHT22;838;51.794;12.258;2023-02-08T19:08:50;-1.40;15.50
1680;DHT22;838;51.794;12.258;2023-02-08T19:11:21;-1.30;15.20
1680;DHT22;838;51.794;12.258;2023-02-08T19:13:48;-1.30;14.90